Time;durP1;ratioP1;P1;durP2;ratioP2;P2;SDS_P1;SDS_P2;PMS_P1;PMS_P2;Temp;Humidity;BMP_temperature;BMP_pressure;BME280_temperature;BME280_humidity;BME280_pressure;Samples;Min_cycle;Max_cycle;Signal;HPM_P1;HPM_P2
2022/10/16 00:00:31;;;;;;;0.10;0.10;;;20.30;68.30;;;;;;4958505;28;20069;-26
2022/10/16 00:02:56;;;;;;;0.08;0.08;;;20.30;68.20;;;;;;4953043;28;20098;-12
2022/10/16 00:05:22;;;;;;;0.20;0.10;;;20.30;68.10;;;;;;4954304;28;20395;-11
2022/10/16 00:07:47;;;;;;;0.08;0.08;;;20.30;68.20;;;;;;4962093;28;20050;-13
2022/10/16 00:10:13;;;;;;;0.05;0.00;;;20.30;68.30;;;;;;4956148;28;20529;-12
2022/10/16 00:12:38;;;;;;;0.10;0.10;;;20.30;68.20;;;;;;4956292;28;20476;-18
2022/10/16 00:15:05;;;;;;;0.20;0.05;;;20.30;68.10;;;;;;4957893;28;20050;-15
2022/10/16 00:17:31;;;;;;;0.10;0.05;;;20.30;68.20;;;;;;4952212;28;20426;-28
2022/10/16 00:19:56;;;;;;;0.10;0.08;;;20.30;68.50;;;;;;4959531;28;20526;-35
2022/10/16 00:22:22;;;;;;;0.10;0.10;;;20.20;68.70;;;;;;4958708;28;20050;-17
2022/10/16 00:24:47;;;;;;;0.20;0.10;;;20.20;68.50;;;;;;4949491;28;20047;-23
2022/10/16 00:27:13;;;;;;;0.00;0.00;;;20.20;68.60;;;;;;4958485;28;20062;-25
2022/10/16 00:29:39;;;;;;;0.13;0.10;;;20.20;68.50;;;;;;4955470;28;20050;-18
2022/10/16 00:32:04;;;;;;;0.00;0.00;;;20.20;68.70;;;;;;4959354;28;20466;-39
2022/10/16 00:34:30;;;;;;;0.10;0.10;;;20.20;68.60;;;;;;4957341;28;20398;-15
2022/10/16 00:36:55;;;;;;;0.17;0.10;;;20.20;68.80;;;;;;4961975;28;20062;-13
2022/10/16 00:39:22;;;;;;;0.52;0.38;;;20.20;68.80;;;;;;4961120;28;20054;-13
2022/10/16 00:41:47;;;;;;;0.10;0.10;;;20.10;68.80;;;;;;4958787;28;20462;-11
2022/10/16 00:44:44;;;;;;;0.20;0.20;;;20.20;68.80;;;;;;4951620;28;20143;-25
2022/10/16 00:47:10;;;;;;;0.00;0.00;;;20.30;68.70;;;;;;4954617;28;20039;-12
2022/10/16 00:49:36;;;;;;;0.03;0.03;;;20.10;68.90;;;;;;4971111;28;20102;-21
2022/10/16 00:52:02;;;;;;;0.15;0.10;;;20.20;68.90;;;;;;4957877;28;20479;-12
2022/10/16 00:54:29;;;;;;;0.10;0.10;;;20.20;69.00;;;;;;4952720;28;20123;-18
2022/10/16 00:56:55;;;;;;;0.20;0.20;;;20.20;68.70;;;;;;4976763;28;20085;-31
2022/10/16 00:59:25;;;;;;;0.35;0.10;;;20.20;68.70;;;;;;4954190;28;20448;-11
2022/10/16 01:01:51;;;;;;;0.10;0.10;;;20.10;68.70;;;;;;4939649;28;20053;-17
2022/10/16 01:04:17;;;;;;;0.05;0.05;;;20.20;68.80;;;;;;4976259;28;20074;-15
2022/10/16 01:07:25;;;;;;;0.10;0.10;;;20.20;68.80;;;;;;4956425;28;21729;-11
2022/10/16 01:10:03;;;;;;;0.10;0.00;;;20.20;68.70;;;;;;4957841;28;20035;-22
2022/10/16 01:12:41;;;;;;;0.10;0.10;;;20.20;68.40;;;;;;4958913;28;20043;-24
2022/10/16 01:15:46;;;;;;;0.20;0.08;;;20.20;68.80;;;;;;4973064;28;20043;-21
2022/10/16 01:18:33;;;;;;;0.13;0.10;;;20.10;68.80;;;;;;4955914;28;20047;-12
2022/10/16 01:21:03;;;;;;;0.43;0.10;;;20.10;68.70;;;;;;4955588;28;20063;-21
2022/10/16 01:24:06;;;;;;;0.00;0.00;;;20.20;68.50;;;;;;4972926;28;20039;-11
2022/10/16 01:26:44;;;;;;;0.10;0.10;;;20.10;68.80;;;;;;4952324;28;20050;-30
2022/10/16 01:29:45;;;;;;;0.08;0.00;;;20.10;68.80;;;;;;4956704;28;20055;-18
2022/10/16 01:32:33;;;;;;;0.10;0.10;;;20.10;68.80;;;;;;4956266;28;20058;-24
2022/10/16 01:35:24;;;;;;;0.00;0.00;;;20.20;68.70;;;;;;4959257;28;20058;-16
2022/10/16 01:37:58;;;;;;;0.20;0.10;;;20.20;68.70;;;;;;4952359;28;20125;-18
2022/10/16 01:40:25;;;;;;;0.13;0.10;;;20.10;68.70;;;;;;4988643;28;20057;-33
2022/10/16 01:42:53;;;;;;;0.17;0.08;;;20.10;69.00;;;;;;4951925;28;20054;-20
2022/10/16 01:45:19;;;;;;;0.10;0.10;;;20.10;68.90;;;;;;4974303;28;20518;-23
2022/10/16 01:47:44;;;;;;;0.15;0.10;;;20.10;69.10;;;;;;4971910;28;20058;-23
2022/10/16 01:50:10;;;;;;;0.10;0.00;;;20.10;69.00;;;;;;4943127;28;20515;-23
2022/10/16 01:52:37;;;;;;;0.05;0.00;;;20.10;69.50;;;;;;4956471;28;20047;-26
2022/10/16 01:55:03;;;;;;;0.00;0.00;;;20.00;69.10;;;;;;4970946;28;20067;-12
2022/10/16 01:57:29;;;;;;;0.10;0.10;;;20.10;69.00;;;;;;4943804;28;20134;-28
2022/10/16 01:59:56;;;;;;;0.00;0.00;;;20.00;68.90;;;;;;4937964;28;20531;-28
2022/10/16 02:02:22;;;;;;;0.10;0.10;;;20.00;69.20;;;;;;4956365;28;20111;-25
2022/10/16 02:04:54;;;;;;;0.15;0.10;;;20.00;69.00;;;;;;4960913;28;20498;-27
2022/10/16 02:07:20;;;;;;;0.10;0.08;;;20.00;69.30;;;;;;4973364;28;20035;-16
2022/10/16 02:09:46;;;;;;;0.10;0.10;;;20.00;68.90;;;;;;4957506;28;20043;-29
2022/10/16 02:12:19;;;;;;;0.10;0.10;;;20.10;68.80;;;;;;4957928;28;20060;-29
2022/10/16 02:14:44;;;;;;;0.10;0.10;;;20.00;69.00;;;;;;4970942;28;20462;-28
2022/10/16 02:17:15;;;;;;;0.10;0.10;;;20.10;69.00;;;;;;4956127;28;20043;-19
2022/10/16 02:19:40;;;;;;;0.10;0.10;;;20.10;69.10;;;;;;4959441;28;20051;-27
2022/10/16 02:22:08;;;;;;;0.10;0.10;;;20.00;69.20;;;;;;4957046;28;20517;-19
2022/10/16 02:24:38;;;;;;;0.38;0.10;;;20.10;69.20;;;;;;4968359;28;20130;-20
2022/10/16 02:27:15;;;;;;;0.10;0.00;;;20.10;69.50;;;;;;4955400;28;20035;-24
2022/10/16 02:29:47;;;;;;;0.10;0.10;;;20.10;68.90;;;;;;4950230;28;20055;-40
2022/10/16 02:32:13;;;;;;;0.00;0.00;;;20.10;69.10;;;;;;4954508;28;20175;-23
2022/10/16 02:34:39;;;;;;;0.10;0.05;;;20.00;69.30;;;;;;4973514;28;20126;-25
2022/10/16 02:37:05;;;;;;;0.05;0.00;;;20.00;69.10;;;;;;4971863;28;20767;-29
2022/10/16 02:39:30;;;;;;;0.10;0.10;;;20.10;69.20;;;;;;4973672;28;20039;-22
2022/10/16 02:41:56;;;;;;;0.10;0.10;;;20.00;69.30;;;;;;4962981;28;20477;-26
2022/10/16 02:44:21;;;;;;;1.25;0.10;;;20.00;69.80;;;;;;4955143;28;20051;-13
2022/10/16 02:46:47;;;;;;;0.25;0.00;;;20.10;69.30;;;;;;4954175;28;20410;-28
2022/10/16 02:49:12;;;;;;;0.17;0.10;;;20.10;68.70;;;;;;4954534;28;20035;-13
2022/10/16 02:51:38;;;;;;;0.03;0.03;;;20.10;69.00;;;;;;4953213;28;20457;-19
2022/10/16 02:54:04;;;;;;;0.30;0.08;;;20.10;69.70;;;;;;4957205;28;20051;-22
2022/10/16 02:56:30;;;;;;;0.30;0.15;;;20.20;68.80;;;;;;4955438;28;20051;-25
2022/10/16 02:58:56;;;;;;;0.10;0.10;;;20.10;68.80;;;;;;4961844;28;20228;-14
2022/10/16 03:01:21;;;;;;;0.10;0.10;;;20.10;69.60;;;;;;4960048;28;20510;-14
2022/10/16 03:03:47;;;;;;;0.00;0.00;;;20.00;69.00;;;;;;4953020;28;20071;-19
2022/10/16 03:06:13;;;;;;;0.20;0.20;;;20.10;68.80;;;;;;4958551;28;20047;-15
2022/10/16 03:08:38;;;;;;;0.15;0.10;;;20.10;68.70;;;;;;4951197;28;20513;-15
2022/10/16 03:11:04;;;;;;;0.03;0.00;;;20.10;68.80;;;;;;4956826;28;20445;-38
2022/10/16 03:13:29;;;;;;;0.10;0.03;;;20.20;68.60;;;;;;4951112;28;20105;-26
2022/10/16 03:15:55;;;;;;;0.15;0.08;;;20.10;68.80;;;;;;4956523;28;20417;-14
2022/10/16 03:18:20;;;;;;;0.00;0.00;;;20.10;68.80;;;;;;4956852;28;20130;-13
2022/10/16 03:20:46;;;;;;;0.05;0.05;;;20.20;68.60;;;;;;4952097;28;20047;-13
2022/10/16 03:23:12;;;;;;;0.05;0.05;;;20.00;68.80;;;;;;4950456;28;20564;-13
2022/10/16 03:25:37;;;;;;;0.10;0.10;;;20.00;68.90;;;;;;4951542;28;20054;-14
2022/10/16 03:28:03;;;;;;;0.13;0.13;;;20.00;69.10;;;;;;4958364;28;20070;-14
2022/10/16 03:30:29;;;;;;;0.10;0.00;;;20.10;68.80;;;;;;4964944;28;20047;-20
2022/10/16 03:32:54;;;;;;;0.17;0.00;;;20.10;68.80;;;;;;4945184;28;20095;-23
2022/10/16 03:35:21;;;;;;;0.03;0.00;;;20.20;68.50;;;;;;4952018;28;20066;-21
2022/10/16 03:37:46;;;;;;;1.30;0.10;;;20.10;68.80;;;;;;4956237;28;20051;-40
2022/10/16 03:40:13;;;;;;;0.10;0.10;;;20.10;68.90;;;;;;4959794;28;20031;-17
2022/10/16 03:42:38;;;;;;;0.10;0.10;;;20.00;69.00;;;;;;4957252;28;20051;-12
2022/10/16 03:45:04;;;;;;;0.00;0.00;;;20.00;69.00;;;;;;4958470;28;20437;-12
2022/10/16 03:47:32;;;;;;;0.10;0.10;;;20.00;69.30;;;;;;4957891;28;20043;-28
2022/10/16 03:49:58;;;;;;;0.10;0.10;;;20.00;69.30;;;;;;4958118;28;20122;-17
2022/10/16 03:52:24;;;;;;;0.22;0.13;;;20.00;69.00;;;;;;4957448;28;20043;-25
2022/10/16 03:54:49;;;;;;;0.88;0.17;;;20.00;69.90;;;;;;4962750;28;20271;-16
2022/10/16 03:57:15;;;;;;;0.10;0.00;;;19.90;69.20;;;;;;4959580;28;20508;-22
2022/10/16 03:59:40;;;;;;;0.00;0.00;;;19.90;69.20;;;;;;4956559;28;20051;-19
2022/10/16 04:02:06;;;;;;;0.30;0.20;;;19.90;69.50;;;;;;4960173;28;20097;-24
2022/10/16 04:04:31;;;;;;;0.08;0.08;;;19.90;69.60;;;;;;4962316;28;20074;-17
2022/10/16 04:06:57;;;;;;;0.10;0.10;;;19.90;69.50;;;;;;4959279;28;20045;-18
2022/10/16 04:09:22;;;;;;;0.10;0.10;;;19.90;69.60;;;;;;4962784;28;20047;-12
2022/10/16 04:11:48;;;;;;;0.10;0.10;;;19.90;69.20;;;;;;4962989;28;20371;-27
2022/10/16 04:14:14;;;;;;;0.20;0.10;;;19.90;69.20;;;;;;4959321;28;20074;-18
2022/10/16 04:16:39;;;;;;;0.47;0.10;;;19.90;69.20;;;;;;4961922;28;20042;-26
2022/10/16 04:19:05;;;;;;;0.10;0.10;;;19.90;69.50;;;;;;4962699;28;20050;-19
2022/10/16 04:21:30;;;;;;;0.25;0.10;;;19.90;69.40;;;;;;4957661;28;20039;-27
2022/10/16 04:23:56;;;;;;;0.15;0.05;;;19.90;69.40;;;;;;4959923;28;20401;-16
2022/10/16 04:26:21;;;;;;;0.03;0.03;;;19.80;69.40;;;;;;4953674;28;20517;-17
2022/10/16 04:28:47;;;;;;;0.15;0.10;;;19.80;69.70;;;;;;4952660;28;20047;-18
2022/10/16 04:31:13;;;;;;;0.10;0.10;;;19.80;69.70;;;;;;4958922;28;20030;-21
2022/10/16 04:33:38;;;;;;;0.20;0.20;;;19.90;69.50;;;;;;4957135;28;20105;-17
2022/10/16 04:36:04;;;;;;;0.00;0.00;;;19.80;69.20;;;;;;4962806;28;20066;-20
2022/10/16 04:38:30;;;;;;;0.10;0.10;;;19.80;69.20;;;;;;4959389;28;20045;-25
2022/10/16 04:40:55;;;;;;;0.03;0.03;;;19.80;69.30;;;;;;4961471;28;20046;-22
2022/10/16 04:43:21;;;;;;;0.10;0.10;;;19.80;69.40;;;;;;4956988;28;20560;-22
2022/10/16 04:45:47;;;;;;;0.00;0.00;;;19.80;69.30;;;;;;4958444;28;20054;-13
2022/10/16 04:48:12;;;;;;;0.10;0.10;;;19.80;69.10;;;;;;4960063;28;20105;-21
2022/10/16 04:50:38;;;;;;;0.30;0.13;;;19.80;69.70;;;;;;4957991;28;20434;-27
2022/10/16 04:53:03;;;;;;;0.05;0.00;;;19.80;69.30;;;;;;4956776;28;20065;-15
2022/10/16 04:55:29;;;;;;;0.15;0.15;;;19.80;70.40;;;;;;4957332;28;20100;-14
2022/10/16 04:57:54;;;;;;;0.10;0.10;;;19.80;69.20;;;;;;4960230;28;20104;-23
2022/10/16 05:00:20;;;;;;;0.10;0.10;;;19.80;69.20;;;;;;4957432;28;20043;-24
2022/10/16 05:02:46;;;;;;;0.10;0.00;;;19.80;69.90;;;;;;4959524;28;20406;-24
2022/10/16 05:05:11;;;;;;;1.85;0.20;;;19.80;69.40;;;;;;4959412;28;20476;-33
2022/10/16 05:07:37;;;;;;;0.95;0.13;;;19.80;69.40;;;;;;4961406;28;20106;-27
2022/10/16 05:10:03;;;;;;;0.20;0.20;;;19.80;69.50;;;;;;4958803;28;20051;-14
2022/10/16 05:12:28;;;;;;;0.08;0.03;;;19.80;69.80;;;;;;4954130;28;20466;-27
2022/10/16 05:14:58;;;;;;;0.10;0.10;;;19.90;69.30;;;;;;4958208;28;20070;-21
2022/10/16 05:17:24;;;;;;;0.32;0.10;;;19.90;69.20;;;;;;4957547;28;20602;-21
2022/10/16 05:19:50;;;;;;;0.10;0.10;;;19.90;69.40;;;;;;4950202;28;20044;-23
2022/10/16 05:22:16;;;;;;;0.20;0.20;;;19.90;69.00;;;;;;4954194;28;20039;-36
2022/10/16 05:24:41;;;;;;;0.15;0.15;;;19.90;69.40;;;;;;4954162;28;20047;-44
2022/10/16 05:27:07;;;;;;;0.10;0.10;;;19.90;70.20;;;;;;4953550;28;20461;-22
2022/10/16 05:29:32;;;;;;;0.38;0.10;;;19.90;69.50;;;;;;4949377;28;20035;-27
2022/10/16 05:31:58;;;;;;;0.45;0.17;;;19.80;69.40;;;;;;4957160;28;20042;-19
2022/10/16 05:34:23;;;;;;;0.20;0.10;;;19.90;69.40;;;;;;4953439;28;20047;-14
2022/10/16 05:36:49;;;;;;;0.10;0.10;;;19.90;69.30;;;;;;4951017;28;20069;-18
2022/10/16 05:39:15;;;;;;;0.20;0.10;;;19.90;69.20;;;;;;4952419;28;20061;-29
2022/10/16 05:41:41;;;;;;;0.10;0.10;;;19.90;69.10;;;;;;4947629;28;20386;-32
2022/10/16 05:44:06;;;;;;;0.17;0.13;;;19.80;70.00;;;;;;4945420;28;20630;-34
2022/10/16 05:46:32;;;;;;;0.10;0.10;;;19.90;69.60;;;;;;4948586;28;20098;-21
2022/10/16 05:48:58;;;;;;;0.20;0.10;;;19.90;69.60;;;;;;4948321;28;20067;-26
2022/10/16 05:51:24;;;;;;;0.20;0.20;;;19.80;69.60;;;;;;4951145;28;20094;-14
2022/10/16 05:53:49;;;;;;;1.80;0.10;;;19.90;69.40;;;;;;4950279;28;20043;-11
2022/10/16 05:56:15;;;;;;;0.15;0.10;;;19.80;70.10;;;;;;4954370;28;20055;-12
2022/10/16 05:58:41;;;;;;;0.20;0.20;;;19.80;69.50;;;;;;4952588;28;20505;-25
2022/10/16 06:01:09;;;;;;;0.00;0.00;;;19.90;69.40;;;;;;4949195;28;20089;-11
2022/10/16 06:03:35;;;;;;;0.10;0.10;;;19.90;69.30;;;;;;4949941;28;20055;-21
2022/10/16 06:06:11;;;;;;;0.40;0.10;;;19.80;69.10;;;;;;4952814;28;20778;-18
2022/10/16 06:08:36;;;;;;;0.13;0.10;;;19.80;69.30;;;;;;4952189;28;20392;-22
2022/10/16 06:11:03;;;;;;;0.20;0.20;;;19.90;69.60;;;;;;4976290;28;20101;-30
2022/10/16 06:13:29;;;;;;;0.20;0.10;;;19.80;69.20;;;;;;4952531;28;20066;-21
2022/10/16 06:15:56;;;;;;;0.13;0.13;;;19.90;69.50;;;;;;4952192;28;20687;-27
2022/10/16 06:18:23;;;;;;;1.98;0.10;;;19.90;69.10;;;;;;4952927;28;20039;-26
2022/10/16 06:20:48;;;;;;;0.63;0.20;;;19.90;69.30;;;;;;4949806;28;20043;-14
2022/10/16 06:23:14;;;;;;;0.10;0.10;;;19.80;69.00;;;;;;4600134;28;10000208;-16
2022/10/16 06:25:39;;;;;;;0.57;0.10;;;19.90;69.00;;;;;;4951697;28;20054;-12
2022/10/16 06:28:05;;;;;;;0.10;0.10;;;19.90;69.10;;;;;;4953307;28;20545;-17
2022/10/16 06:30:30;;;;;;;0.57;0.30;;;19.90;69.00;;;;;;4953811;28;20550;-12
2022/10/16 06:32:56;;;;;;;0.32;0.20;;;20.00;69.00;;;;;;4951403;28;20051;-32
2022/10/16 06:35:22;;;;;;;0.68;0.10;;;19.90;68.60;;;;;;4968350;28;20047;-25
2022/10/16 06:37:47;;;;;;;0.10;0.10;;;19.90;69.20;;;;;;4956455;28;20057;-9
2022/10/16 06:40:14;;;;;;;0.20;0.20;;;19.90;69.50;;;;;;4950247;28;20133;-12
2022/10/16 06:42:40;;;;;;;0.17;0.17;;;19.90;69.00;;;;;;4952873;28;20097;-20
2022/10/16 06:45:06;;;;;;;0.17;0.10;;;19.90;69.50;;;;;;4953396;28;20058;-25
2022/10/16 06:47:31;;;;;;;0.10;0.10;;;19.90;69.00;;;;;;4949583;28;20054;-22
2022/10/16 06:49:57;;;;;;;0.32;0.20;;;20.00;68.50;;;;;;4954369;28;20442;-24
2022/10/16 06:52:22;;;;;;;0.10;0.10;;;19.90;68.80;;;;;;4950221;28;20042;-12
2022/10/16 06:54:49;;;;;;;0.68;0.10;;;19.90;68.60;;;;;;4943043;28;20061;-9
2022/10/16 06:57:14;;;;;;;0.20;0.20;;;19.90;68.70;;;;;;4980735;28;20061;-20
2022/10/16 06:59:40;;;;;;;0.20;0.20;;;19.90;69.00;;;;;;4955404;28;20537;-25
2022/10/16 07:02:07;;;;;;;0.10;0.10;;;19.90;68.70;;;;;;4951402;28;20043;-21
2022/10/16 07:04:32;;;;;;;0.10;0.10;;;20.00;68.80;;;;;;4950647;28;20047;-36
2022/10/16 07:07:00;;;;;;;0.10;0.10;;;20.10;68.50;;;;;;4946871;28;20043;-26
2022/10/16 07:09:26;;;;;;;0.20;0.20;;;20.00;68.60;;;;;;4950608;28;20102;-14
2022/10/16 07:11:51;;;;;;;0.43;0.20;;;20.00;68.60;;;;;;4954000;28;20046;-14
2022/10/16 07:14:18;;;;;;;0.73;0.20;;;20.00;68.60;;;;;;4959048;28;20066;-9
2022/10/16 07:16:43;;;;;;;0.10;0.10;;;20.00;69.00;;;;;;4952535;28;20454;-12
2022/10/16 07:19:11;;;;;;;0.30;0.20;;;19.90;68.80;;;;;;4957746;28;20079;-10
2022/10/16 07:21:37;;;;;;;0.10;0.10;;;19.90;68.90;;;;;;4950598;28;20105;-18
2022/10/16 07:24:03;;;;;;;0.65;0.10;;;19.90;69.30;;;;;;4957049;28;20043;-10
2022/10/16 07:26:30;;;;;;;0.20;0.20;;;19.90;68.90;;;;;;4952307;28;20498;-10
2022/10/16 07:28:57;;;;;;;0.55;0.20;;;20.00;69.20;;;;;;4953507;28;20081;-11
2022/10/16 07:31:23;;;;;;;0.60;0.20;;;20.00;68.80;;;;;;4953397;28;20053;-10
2022/10/16 07:33:48;;;;;;;0.10;0.10;;;19.90;69.00;;;;;;4947742;28;20039;-18
2022/10/16 07:36:15;;;;;;;0.20;0.20;;;20.00;68.70;;;;;;4952063;28;20062;-9
2022/10/16 07:38:42;;;;;;;0.20;0.15;;;20.00;68.50;;;;;;4951898;28;20038;-9
2022/10/16 07:41:09;;;;;;;0.10;0.10;;;20.00;68.30;;;;;;4949440;28;20059;-9
2022/10/16 07:43:34;;;;;;;0.25;0.15;;;20.10;68.40;;;;;;4984936;28;20079;-13
2022/10/16 07:46:00;;;;;;;0.30;0.20;;;20.00;68.40;;;;;;4951912;28;20074;-18
2022/10/16 07:48:30;;;;;;;0.20;0.20;;;20.00;68.60;;;;;;4952830;28;20066;-9
2022/10/16 07:51:02;;;;;;;0.20;0.20;;;20.00;68.80;;;;;;4930165;28;20179;-16
2022/10/16 07:53:28;;;;;;;0.55;0.10;;;20.00;68.80;;;;;;4943287;28;20912;-11
2022/10/16 07:56:03;;;;;;;0.30;0.30;;;19.90;69.20;;;;;;4953003;28;20039;-12
2022/10/16 07:58:29;;;;;;;0.50;0.30;;;20.00;69.20;;;;;;4922518;29;20830;-17
2022/10/16 08:00:55;;;;;;;0.20;0.20;;;19.90;69.10;;;;;;4933485;29;20031;-11
2022/10/16 08:03:21;;;;;;;0.25;0.20;;;19.90;68.80;;;;;;4934245;28;20114;-12
2022/10/16 08:05:47;;;;;;;0.28;0.10;;;19.90;68.60;;;;;;4931963;28;20049;-23
2022/10/16 08:08:13;;;;;;;0.22;0.22;;;20.00;68.40;;;;;;4927312;28;20044;-25
2022/10/16 08:10:39;;;;;;;0.10;0.10;;;20.00;68.30;;;;;;4917478;29;20139;-16
2022/10/16 08:13:04;;;;;;;0.13;0.10;;;20.10;68.00;;;;;;4920484;29;20764;-18
2022/10/16 08:15:30;;;;;;;0.20;0.20;;;20.10;68.80;;;;;;4922331;29;20040;-23
2022/10/16 08:18:00;;;;;;;0.20;0.20;;;20.10;68.30;;;;;;4920290;28;20064;-9
2022/10/16 08:20:26;;;;;;;0.10;0.10;;;20.10;68.90;;;;;;4921649;29;20024;-15
2022/10/16 08:22:52;;;;;;;0.40;0.20;;;20.10;68.80;;;;;;4925582;28;20046;-18
2022/10/16 08:25:17;;;;;;;0.20;0.20;;;20.10;68.50;;;;;;4920136;29;20508;-12
2022/10/16 08:27:44;;;;;;;0.20;0.20;;;20.10;68.50;;;;;;4913444;29;20040;-13
2022/10/16 08:30:10;;;;;;;0.30;0.22;;;20.10;68.60;;;;;;4914442;28;20028;-11
2022/10/16 08:32:36;;;;;;;0.13;0.13;;;20.10;68.50;;;;;;4914469;29;20050;-11
2022/10/16 08:35:01;;;;;;;0.28;0.28;;;20.10;68.40;;;;;;4916104;29;20047;-12
2022/10/16 08:37:33;;;;;;;0.17;0.17;;;20.20;68.40;;;;;;4918121;28;20036;-12
2022/10/16 08:39:59;;;;;;;0.20;0.20;;;20.10;68.30;;;;;;4913917;29;20038;-15
2022/10/16 08:42:30;;;;;;;0.47;0.10;;;20.20;68.20;;;;;;4916648;29;20299;-11
2022/10/16 08:45:21;;;;;;;0.10;0.10;;;20.20;68.10;;;;;;4920101;29;20058;-28
2022/10/16 08:47:56;;;;;;;0.10;0.10;;;20.20;68.40;;;;;;4917703;29;20071;-27
2022/10/16 08:50:27;;;;;;;0.10;0.10;;;20.30;67.80;;;;;;4922726;29;20779;-22
2022/10/16 08:52:53;;;;;;;0.22;0.20;;;20.30;67.80;;;;;;4933252;28;20063;-11
2022/10/16 08:55:34;;;;;;;0.10;0.10;;;20.20;68.10;;;;;;4922943;29;20123;-21
2022/10/16 08:58:00;;;;;;;0.10;0.10;;;20.40;67.50;;;;;;4935237;28;20439;-10
2022/10/16 09:00:26;;;;;;;1.05;0.20;;;20.40;67.30;;;;;;4937054;28;20043;-16
2022/10/16 09:03:12;;;;;;;0.10;0.10;;;20.40;67.30;;;;;;4940683;28;20104;-17
2022/10/16 09:05:57;;;;;;;0.03;0.03;;;20.40;67.30;;;;;;4940925;28;20039;-20
2022/10/16 09:08:58;;;;;;;0.10;0.10;;;20.40;67.30;;;;;;4937877;28;20405;-12
2022/10/16 09:12:00;;;;;;;0.10;0.10;;;20.40;67.30;;;;;;4936786;28;20558;-20
2022/10/16 09:14:47;;;;;;;0.10;0.10;;;20.40;67.30;;;;;;4935124;28;20118;-9
2022/10/16 09:17:34;;;;;;;0.22;0.22;;;20.50;67.30;;;;;;4939821;28;20039;-29
2022/10/16 09:20:32;;;;;;;0.10;0.10;;;20.60;66.90;;;;;;4923878;28;20042;-12
2022/10/16 09:23:15;;;;;;;0.10;0.10;;;20.40;67.50;;;;;;4941825;28;20101;-13
2022/10/16 09:25:43;;;;;;;0.70;0.30;;;20.50;66.90;;;;;;4939140;28;20058;-10
2022/10/16 09:28:10;;;;;;;0.10;0.10;;;20.50;66.80;;;;;;4942656;28;20834;-26
2022/10/16 09:30:35;;;;;;;0.52;0.20;;;20.50;67.00;;;;;;4940721;28;20533;-19
2022/10/16 09:33:01;;;;;;;0.15;0.15;;;20.50;67.10;;;;;;4941097;28;20356;-15
2022/10/16 09:35:48;;;;;;;0.20;0.20;;;20.50;67.20;;;;;;4940054;28;20375;-23
2022/10/16 09:38:29;;;;;;;0.20;0.20;;;20.50;67.10;;;;;;4929925;28;20473;-21
2022/10/16 09:40:59;;;;;;;0.10;0.10;;;20.50;67.00;;;;;;4940416;28;20118;-17
2022/10/16 09:43:31;;;;;;;0.10;0.10;;;20.50;67.80;;;;;;4941096;28;20035;-18
2022/10/16 09:45:58;;;;;;;0.15;0.15;;;20.50;66.90;;;;;;4940063;28;20585;-14
2022/10/16 09:48:31;;;;;;;0.20;0.10;;;20.50;66.90;;;;;;4937263;28;20125;-15
2022/10/16 09:50:58;;;;;;;1.00;0.10;;;20.50;66.90;;;;;;4932636;28;20030;-10
2022/10/16 09:53:23;;;;;;;0.30;0.10;;;20.60;66.90;;;;;;4930103;28;20035;-11
2022/10/16 09:55:50;;;;;;;0.17;0.10;;;20.60;66.60;;;;;;4927340;28;20042;-16
2022/10/16 09:58:16;;;;;;;0.20;0.20;;;20.60;66.60;;;;;;4931101;28;20047;-32
2022/10/16 10:00:42;;;;;;;0.10;0.10;;;20.60;66.60;;;;;;4939622;28;20027;-17
2022/10/16 10:03:10;;;;;;;0.20;0.20;;;20.60;66.60;;;;;;4939617;28;20073;-14
2022/10/16 10:05:36;;;;;;;0.10;0.10;;;20.70;66.40;;;;;;4939248;28;20540;-11
2022/10/16 10:08:05;;;;;;;0.10;0.10;;;20.60;66.50;;;;;;4937236;28;20043;-13
2022/10/16 10:10:34;;;;;;;0.10;0.10;;;20.60;66.70;;;;;;4937729;28;20067;-17
2022/10/16 10:13:00;;;;;;;0.10;0.10;;;20.70;66.60;;;;;;4974283;28;20074;-10
2022/10/16 10:15:26;;;;;;;0.10;0.00;;;20.60;66.80;;;;;;4939947;28;20122;-23
2022/10/16 10:17:55;;;;;;;0.35;0.22;;;20.60;66.70;;;;;;4923701;28;20031;-10
2022/10/16 10:20:26;;;;;;;0.10;0.10;;;20.70;66.40;;;;;;4939934;28;20036;-10
2022/10/16 10:22:51;;;;;;;0.10;0.10;;;20.70;66.50;;;;;;4941685;28;20162;-11
2022/10/16 10:25:20;;;;;;;0.10;0.10;;;20.60;67.30;;;;;;4937358;28;20488;-14
2022/10/16 10:28:16;;;;;;;0.10;0.10;;;20.70;66.30;;;;;;4933859;28;20031;-23
2022/10/16 10:30:59;;;;;;;0.10;0.10;;;20.60;66.50;;;;;;4936952;28;20035;-10
2022/10/16 10:33:30;;;;;;;0.10;0.10;;;20.60;66.60;;;;;;4938492;28;20501;-25
2022/10/16 10:36:10;;;;;;;0.10;0.10;;;20.60;66.60;;;;;;4935513;28;20070;-10
2022/10/16 10:38:40;;;;;;;0.15;0.15;;;20.70;66.40;;;;;;4937482;28;20125;-29
2022/10/16 10:41:48;;;;;;;0.05;0.05;;;20.70;66.40;;;;;;4937408;28;20070;-10
2022/10/16 10:44:50;;;;;;;0.10;0.10;;;20.70;66.10;;;;;;4935772;28;20035;-19
2022/10/16 10:47:24;;;;;;;0.15;0.10;;;20.80;66.30;;;;;;4937874;28;20097;-12
2022/10/16 10:50:21;;;;;;;0.00;0.00;;;20.70;66.10;;;;;;4937356;28;20111;-18
2022/10/16 10:53:19;;;;;;;0.30;0.13;;;20.60;66.70;;;;;;4935856;28;20074;-21
2022/10/16 10:55:50;;;;;;;0.10;0.10;;;20.70;66.30;;;;;;4930231;28;20051;-28
2022/10/16 10:58:35;;;;;;;0.10;0.10;;;20.60;66.70;;;;;;4933474;28;20430;-31
2022/10/16 11:01:08;;;;;;;0.03;0.03;;;20.60;66.60;;;;;;4956878;28;20508;-12
2022/10/16 11:04:10;;;;;;;0.10;0.10;;;20.80;66.20;;;;;;4936938;28;20550;-12
2022/10/16 11:06:50;;;;;;;0.08;0.08;;;20.60;66.40;;;;;;4918756;28;20054;-16
2022/10/16 11:09:17;;;;;;;0.10;0.10;;;20.60;66.50;;;;;;4936861;28;20113;-11
2022/10/16 11:11:49;;;;;;;0.08;0.08;;;20.60;66.40;;;;;;4935608;28;20778;-22
2022/10/16 11:14:19;;;;;;;0.28;0.10;;;20.70;66.30;;;;;;4949973;28;20101;-22
2022/10/16 11:16:57;;;;;;;0.10;0.05;;;20.70;66.30;;;;;;4934141;28;20043;-31
2022/10/16 11:19:40;;;;;;;0.10;0.10;;;20.70;66.30;;;;;;4936254;28;20035;-15
2022/10/16 11:22:30;;;;;;;0.00;0.00;;;20.60;66.90;;;;;;4937636;28;20421;-13
2022/10/16 11:25:17;;;;;;;0.08;0.08;;;20.60;66.70;;;;;;4932407;28;20039;-23
2022/10/16 11:27:44;;;;;;;0.30;0.30;;;20.70;66.30;;;;;;4585938;28;10000654;-25
2022/10/16 11:30:30;;;;;;;0.10;0.08;;;20.80;65.80;;;;;;4929565;28;20372;-18
2022/10/16 11:33:11;;;;;;;0.30;0.10;;;20.70;66.00;;;;;;4932795;28;20041;-18
2022/10/16 11:35:59;;;;;;;0.10;0.10;;;20.90;66.00;;;;;;4931446;28;20106;-37
2022/10/16 11:38:45;;;;;;;0.03;0.03;;;21.00;65.10;;;;;;4931857;28;20388;-27
2022/10/16 11:41:27;;;;;;;0.10;0.10;;;21.00;65.10;;;;;;4935320;28;20055;-13
2022/10/16 11:44:02;;;;;;;0.00;0.00;;;21.00;65.20;;;;;;4931123;28;20058;-12
2022/10/16 11:46:28;;;;;;;0.20;0.10;;;21.00;65.00;;;;;;4929565;28;20110;-26
2022/10/16 11:49:15;;;;;;;0.75;0.00;;;20.80;65.80;;;;;;4935740;28;20041;-30
2022/10/16 11:51:48;;;;;;;0.10;0.10;;;20.80;66.00;;;;;;4930556;28;20086;-17
2022/10/16 11:54:29;;;;;;;0.17;0.17;;;20.90;65.80;;;;;;4932707;28;20027;-16
2022/10/16 11:56:57;;;;;;;0.10;0.10;;;20.70;66.50;;;;;;4929873;28;20295;-13
2022/10/16 11:59:51;;;;;;;0.15;0.15;;;20.60;67.00;;;;;;4931236;28;20130;-12
2022/10/16 12:02:25;;;;;;;0.10;0.10;;;20.60;67.00;;;;;;4931254;28;20616;-12
2022/10/16 12:04:59;;;;;;;0.13;0.05;;;20.60;66.70;;;;;;4931409;28;20066;-13
2022/10/16 12:07:27;;;;;;;0.85;0.10;;;20.70;66.80;;;;;;4949434;28;20042;-12
2022/10/16 12:09:53;;;;;;;0.30;0.10;;;20.70;66.70;;;;;;4936394;28;20047;-13
2022/10/16 12:12:38;;;;;;;0.10;0.10;;;20.70;66.50;;;;;;4933458;28;20039;-17
2022/10/16 12:15:25;;;;;;;0.10;0.10;;;20.70;66.40;;;;;;4936311;28;20102;-12
2022/10/16 12:17:51;;;;;;;0.10;0.10;;;20.90;65.70;;;;;;4933733;28;20045;-18
2022/10/16 12:20:17;;;;;;;0.10;0.10;;;20.80;66.00;;;;;;4936108;28;20039;-12
2022/10/16 12:22:55;;;;;;;0.55;0.10;;;20.70;67.00;;;;;;4936693;28;20492;-12
2022/10/16 12:25:25;;;;;;;0.10;0.10;;;20.90;65.90;;;;;;4939377;28;20106;-12
2022/10/16 12:27:55;;;;;;;0.10;0.10;;;20.80;66.00;;;;;;4925502;28;20445;-15
2022/10/16 12:30:24;;;;;;;0.13;0.10;;;20.90;66.20;;;;;;4936514;28;20063;-12
2022/10/16 12:32:54;;;;;;;1.75;0.30;;;20.80;66.30;;;;;;4937524;28;20043;-15
2022/10/16 12:35:22;;;;;;;0.10;0.10;;;20.80;66.70;;;;;;4935012;28;21278;-13
2022/10/16 12:37:47;;;;;;;0.20;0.20;;;20.80;66.60;;;;;;4947286;28;20043;-13
2022/10/16 12:40:30;;;;;;;0.05;0.05;;;20.80;66.60;;;;;;4948380;28;20525;-16
2022/10/16 12:42:56;;;;;;;0.20;0.15;;;20.90;66.50;;;;;;4938918;28;20031;-15
2022/10/16 12:45:33;;;;;;;0.10;0.10;;;20.80;66.70;;;;;;4936655;28;20129;-12
2022/10/16 12:48:04;;;;;;;0.13;0.13;;;20.90;66.50;;;;;;4931692;28;20560;-12
2022/10/16 12:50:32;;;;;;;0.40;0.10;;;20.80;66.10;;;;;;4936265;28;20502;-19
2022/10/16 12:52:59;;;;;;;0.00;0.00;;;20.80;66.50;;;;;;4954534;28;20035;-12
2022/10/16 12:55:24;;;;;;;0.08;0.03;;;20.90;66.50;;;;;;4936897;28;20557;-12
2022/10/16 12:58:03;;;;;;;0.45;0.20;;;20.90;66.30;;;;;;4934815;28;20583;-12
2022/10/16 13:00:41;;;;;;;0.10;0.10;;;21.10;65.40;;;;;;4935903;28;20073;-13
2022/10/16 13:03:28;;;;;;;0.40;0.10;;;20.90;66.00;;;;;;4934015;28;20027;-12